Time;durP1;ratioP1;P1;durP2;ratioP2;P2;SDS_P1;SDS_P2;PMS_P1;PMS_P2;Temp;Humidity;BMP_temperature;BMP_pressure;BME280_temperature;BME280_humidity;BME280_pressure;Samples;Min_cycle;Max_cycle;Signal;HPM_P1;HPM_P2
2024/04/07 00:05:15;;;;;;;;;3.33;3.33;;;;;;;;6491685;31;9095;-56
2024/04/07 00:11:16;;;;;;;;;3.00;3.00;;;;;;;;6490645;31;9037;-54
2024/04/07 00:17:17;;;;;;;;;4.67;4.67;;;;;;;;6490266;31;8915;-55
2024/04/07 00:23:21;;;;;;;;;4.00;4.00;;;;;;;;6490313;39;8889;-54
2024/04/07 00:29:22;;;;;;;;;5.33;5.33;;;;;;;;6491011;39;8896;-57
2024/04/07 00:35:23;;;;;;;;;4.00;4.00;;;;;;;;6490000;46;8981;-58
2024/04/07 00:41:24;;;;;;;;;3.00;3.00;;;;;;;;6491263;31;8960;-54
2024/04/07 00:47:25;;;;;;;;;5.00;5.00;;;;;;;;6491001;31;8942;-55
2024/04/07 00:53:27;;;;;;;;;7.50;7.50;;;;;;;;5860990;36;10004389;-57
2024/04/07 00:59:29;;;;;;;;;8.00;8.00;;;;;;;;6490548;39;9027;-57
2024/04/07 01:05:49;;;;;;;;;7.33;7.33;;;;;;;;6490371;39;8901;-57
2024/04/07 01:11:49;;;;;;;;;11.00;8.67;;;;;;;;6490113;39;8913;-53
2024/04/07 01:17:51;;;;;;;;;10.00;9.33;;;;;;;;6489818;39;8869;-57
2024/04/07 01:23:54;;;;;;;;;11.33;10.33;;;;;;;;6490262;47;8923;-55
2024/04/07 01:29:55;;;;;;;;;11.67;11.67;;;;;;;;6490457;47;8861;-59
2024/04/07 01:35:56;;;;;;;;;9.33;9.33;;;;;;;;6490159;31;8920;-54
2024/04/07 01:41:57;;;;;;;;;11.00;11.00;;;;;;;;6490413;46;8885;-56
2024/04/07 01:47:58;;;;;;;;;10.00;10.00;;;;;;;;6491799;31;9111;-55
2024/04/07 01:53:59;;;;;;;;;9.67;8.00;;;;;;;;6492185;39;8869;-57
2024/04/07 02:00:00;;;;;;;;;13.33;11.67;;;;;;;;6491951;39;8868;-57
2024/04/07 02:06:02;;;;;;;;;12.33;11.33;;;;;;;;6492451;39;9024;-55
2024/04/07 02:12:04;;;;;;;;;10.67;10.67;;;;;;;;6493049;39;8939;-58
2024/04/07 02:18:05;;;;;;;;;10.00;10.00;;;;;;;;6491292;31;8896;-56
2024/04/07 02:24:06;;;;;;;;;13.67;13.67;;;;;;;;6491854;31;9060;-58
2024/04/07 02:30:08;;;;;;;;;15.00;15.00;;;;;;;;6492401;39;8947;-56
2024/04/07 02:36:10;;;;;;;;;20.33;16.33;;;;;;;;6491798;46;8929;-56
2024/04/07 02:42:11;;;;;;;;;14.33;14.00;;;;;;;;6491821;39;8885;-56
2024/04/07 02:48:13;;;;;;;;;20.00;17.67;;;;;;;;6491771;31;8948;-56
2024/04/07 02:54:15;;;;;;;;;19.00;16.33;;;;;;;;6491135;39;9031;-57
2024/04/07 03:00:17;;;;;;;;;17.33;17.33;;;;;;;;6491162;46;8893;-57
2024/04/07 03:06:19;;;;;;;;;19.33;19.33;;;;;;;;6490725;39;8917;-55
2024/04/07 03:12:20;;;;;;;;;22.00;19.50;;;;;;;;6491579;39;9024;-57
2024/04/07 03:18:21;;;;;;;;;17.67;17.67;;;;;;;;6490526;46;8861;-57
2024/04/07 03:24:22;;;;;;;;;21.00;20.33;;;;;;;;6490254;46;8943;-57
2024/04/07 03:30:23;;;;;;;;;19.00;18.67;;;;;;;;6490994;31;8973;-56
2024/04/07 03:36:27;;;;;;;;;19.67;19.67;;;;;;;;6491923;39;9030;-56
2024/04/07 03:42:29;;;;;;;;;19.00;18.25;;;;;;;;6491322;39;9888;-59
2024/04/07 03:48:33;;;;;;;;;21.67;20.33;;;;;;;;6490564;46;8880;-57
2024/04/07 03:54:33;;;;;;;;;21.00;19.67;;;;;;;;6491697;31;8924;-57
2024/04/07 04:00:34;;;;;;;;;22.00;22.00;;;;;;;;6491051;31;8881;-56
2024/04/07 04:06:36;;;;;;;;;20.75;20.25;;;;;;;;6491652;31;8905;-56
2024/04/07 04:12:37;;;;;;;;;26.00;23.50;;;;;;;;6491260;31;9060;-56
2024/04/07 04:18:38;;;;;;;;;25.00;23.50;;;;;;;;6489252;46;8911;-57
2024/04/07 04:24:39;;;;;;;;;27.00;23.25;;;;;;;;6490505;39;8868;-56
2024/04/07 04:30:40;;;;;;;;;29.75;27.00;;;;;;;;6489604;39;8912;-57
2024/04/07 04:36:41;;;;;;;;;25.33;25.33;;;;;;;;6490616;39;8956;-56
2024/04/07 04:42:42;;;;;;;;;23.00;22.50;;;;;;;;6491907;39;9472;-56
2024/04/07 04:48:45;;;;;;;;;22.33;22.33;;;;;;;;6490399;46;8900;-57
2024/04/07 04:54:46;;;;;;;;;21.25;20.25;;;;;;;;6490066;46;8881;-57
2024/04/07 05:00:47;;;;;;;;;25.00;21.25;;;;;;;;6489343;39;8904;-55
2024/04/07 05:06:48;;;;;;;;;27.00;24.25;;;;;;;;6490077;47;8904;-57
2024/04/07 05:12:49;;;;;;;;;25.50;24.75;;;;;;;;6490063;47;8913;-56
2024/04/07 05:18:50;;;;;;;;;22.67;20.00;;;;;;;;6490569;46;8923;-56
2024/04/07 05:24:53;;;;;;;;;19.67;18.33;;;;;;;;6491315;46;9025;-56
2024/04/07 05:30:55;;;;;;;;;17.00;16.00;;;;;;;;6492022;32;8896;-57
2024/04/07 05:36:59;;;;;;;;;18.67;17.67;;;;;;;;6492142;31;8957;-56
2024/04/07 05:43:01;;;;;;;;;15.33;15.33;;;;;;;;6492543;39;8932;-56
2024/04/07 05:49:01;;;;;;;;;15.33;14.67;;;;;;;;6492402;39;8865;-57
2024/04/07 05:55:05;;;;;;;;;16.33;14.67;;;;;;;;6491802;39;8928;-55
2024/04/07 06:01:07;;;;;;;;;13.33;13.33;;;;;;;;6493059;31;9580;-56
2024/04/07 06:07:09;;;;;;;;;14.00;14.00;;;;;;;;6492985;39;8976;-56
2024/04/07 06:13:10;;;;;;;;;15.67;13.00;;;;;;;;6492077;39;9019;-57
2024/04/07 06:19:11;;;;;;;;;15.67;14.33;;;;;;;;6491530;46;8893;-57
2024/04/07 06:25:12;;;;;;;;;13.00;12.33;;;;;;;;6490826;46;8885;-56
2024/04/07 06:31:14;;;;;;;;;10.00;10.00;;;;;;;;6491109;46;8960;-56
2024/04/07 06:37:15;;;;;;;;;10.67;10.67;;;;;;;;6490781;39;8916;-55
2024/04/07 06:43:16;;;;;;;;;10.67;10.00;;;;;;;;6491926;39;8857;-55
2024/04/07 06:49:18;;;;;;;;;8.33;8.33;;;;;;;;6492099;31;8845;-57
2024/04/07 06:55:19;;;;;;;;;7.00;7.00;;;;;;;;6491413;46;8857;-57
2024/04/07 07:01:21;;;;;;;;;6.33;6.33;;;;;;;;6491828;39;9000;-55
2024/04/07 07:07:22;;;;;;;;;5.00;5.00;;;;;;;;6491080;46;8869;-57
2024/04/07 07:13:23;;;;;;;;;5.00;5.00;;;;;;;;6490788;46;8928;-57
2024/04/07 07:19:24;;;;;;;;;7.33;6.00;;;;;;;;6491468;39;8872;-56
2024/04/07 07:25:25;;;;;;;;;5.67;5.67;;;;;;;;6490266;39;8860;-57
2024/04/07 07:31:28;;;;;;;;;5.00;5.00;;;;;;;;6491054;39;8877;-58
2024/04/07 07:37:29;;;;;;;;;5.00;5.00;;;;;;;;6491370;39;8877;-59
2024/04/07 07:43:30;;;;;;;;;5.33;5.33;;;;;;;;6491028;39;9040;-57
2024/04/07 07:49:31;;;;;;;;;5.67;5.00;;;;;;;;6490583;46;8956;-58
2024/04/07 07:55:32;;;;;;;;;6.67;6.67;;;;;;;;6490487;46;9159;-57
2024/04/07 08:01:33;;;;;;;;;5.00;5.00;;;;;;;;6491019;31;8936;-59
2024/04/07 08:07:34;;;;;;;;;5.00;5.00;;;;;;;;6491835;31;8845;-59
2024/04/07 08:13:35;;;;;;;;;7.75;6.50;;;;;;;;6491561;39;9635;-63
2024/04/07 08:19:36;;;;;;;;;6.33;6.00;;;;;;;;6490535;46;8900;-58
2024/04/07 08:25:37;;;;;;;;;6.25;5.75;;;;;;;;6490612;46;8896;-58
2024/04/07 08:31:38;;;;;;;;;5.00;5.00;;;;;;;;6490274;46;8980;-57
2024/04/07 08:37:40;;;;;;;;;6.00;6.00;;;;;;;;6490697;39;8860;-57
2024/04/07 08:43:43;;;;;;;;;8.50;6.50;;;;;;;;6490506;31;8861;-58
2024/04/07 08:49:46;;;;;;;;;5.00;5.00;;;;;;;;6490832;39;9007;-59
2024/04/07 08:55:48;;;;;;;;;5.25;5.25;;;;;;;;6489291;39;9027;-56
2024/04/07 09:01:52;;;;;;;;;5.50;5.50;;;;;;;;6490681;46;9035;-58
2024/04/07 09:07:53;;;;;;;;;7.75;7.25;;;;;;;;6490278;31;9114;-58
2024/04/07 09:13:54;;;;;;;;;5.00;5.00;;;;;;;;6490698;39;8927;-57
2024/04/07 09:19:55;;;;;;;;;6.00;5.75;;;;;;;;6489965;31;9107;-59
2024/04/07 09:25:56;;;;;;;;;5.00;5.00;;;;;;;;6488658;47;8959;-58
2024/04/07 09:31:59;;;;;;;;;10.75;7.00;;;;;;;;6491074;31;8913;-57
2024/04/07 09:38:00;;;;;;;;;7.00;5.50;;;;;;;;6489245;39;8978;-58
2024/04/07 09:44:05;;;;;;;;;6.75;5.75;;;;;;;;6489150;47;8969;-58
2024/04/07 09:50:18;;;;;;;;;6.25;5.75;;;;;;;;6490173;39;8962;-58
2024/04/07 09:56:23;;;;;;;;;4.75;4.00;;;;;;;;6490339;39;9065;-58
2024/04/07 10:02:25;;;;;;;;;4.75;4.75;;;;;;;;6490348;31;9233;-57
2024/04/07 10:08:29;;;;;;;;;6.75;6.00;;;;;;;;6492578;39;8894;-57
2024/04/07 10:14:44;;;;;;;;;5.50;5.25;;;;;;;;6492232;39;8867;-56
2024/04/07 10:20:55;;;;;;;;;7.00;6.25;;;;;;;;6490112;46;8922;-58
2024/04/07 10:26:59;;;;;;;;;7.25;7.25;;;;;;;;6491747;39;8956;-60
2024/04/07 10:33:02;;;;;;;;;7.25;7.25;;;;;;;;6491340;39;8934;-59
2024/04/07 10:39:04;;;;;;;;;8.50;6.25;;;;;;;;6492168;39;8942;-57
2024/04/07 10:45:06;;;;;;;;;8.75;6.00;;;;;;;;6491561;31;8933;-57
2024/04/07 10:51:09;;;;;;;;;6.50;6.50;;;;;;;;6491304;39;8879;-57
2024/04/07 10:57:16;;;;;;;;;6.00;6.00;;;;;;;;6491136;46;8910;-59
2024/04/07 11:03:17;;;;;;;;;6.67;6.33;;;;;;;;6491372;31;8935;-58
2024/04/07 11:09:20;;;;;;;;;4.75;4.75;;;;;;;;6490559;46;9129;-59
2024/04/07 11:15:21;;;;;;;;;6.50;6.50;;;;;;;;6491121;39;9613;-58
2024/04/07 11:21:24;;;;;;;;;4.75;4.75;;;;;;;;6491826;39;9585;-57
2024/04/07 11:27:25;;;;;;;;;8.00;7.25;;;;;;;;6491723;31;9066;-56
2024/04/07 11:33:28;;;;;;;;;5.25;5.25;;;;;;;;6491580;31;9015;-55
2024/04/07 11:39:30;;;;;;;;;7.00;7.00;;;;;;;;6491194;39;8997;-56
2024/04/07 11:45:31;;;;;;;;;5.75;4.00;;;;;;;;6490470;31;9542;-57
2024/04/07 11:51:32;;;;;;;;;7.75;7.25;;;;;;;;6489540;46;8891;-57
2024/04/07 11:57:35;;;;;;;;;6.50;5.75;;;;;;;;6491036;31;8857;-54
2024/04/07 12:03:37;;;;;;;;;8.00;7.00;;;;;;;;6490919;31;9045;-55
2024/04/07 12:09:39;;;;;;;;;4.25;4.25;;;;;;;;6489810;39;8920;-57
2024/04/07 12:15:40;;;;;;;;;5.75;5.75;;;;;;;;6491368;39;8882;-57
2024/04/07 12:21:42;;;;;;;;;5.00;5.00;;;;;;;;6490231;31;8928;-56
2024/04/07 12:27:43;;;;;;;;;4.50;4.50;;;;;;;;6490348;39;9228;-58
2024/04/07 12:33:46;;;;;;;;;4.75;4.00;;;;;;;;6490471;39;9018;-57
2024/04/07 12:39:48;;;;;;;;;2.50;2.50;;;;;;;;6489127;39;9094;-60
2024/04/07 12:45:49;;;;;;;;;4.00;4.00;;;;;;;;6490042;46;9043;-59
2024/04/07 12:51:50;;;;;;;;;5.00;5.00;;;;;;;;6490316;46;8891;-56
2024/04/07 12:57:51;;;;;;;;;7.75;5.00;;;;;;;;6489295;46;8975;-55
2024/04/07 13:03:52;;;;;;;;;6.00;6.00;;;;;;;;6490537;46;9001;-57
2024/04/07 13:09:54;;;;;;;;;7.00;6.00;;;;;;;;6490039;47;8967;-57
2024/04/07 13:15:56;;;;;;;;;4.75;4.75;;;;;;;;6490808;39;9037;-56
2024/04/07 13:21:56;;;;;;;;;6.00;6.00;;;;;;;;6490292;39;8885;-57
2024/04/07 13:27:59;;;;;;;;;5.00;4.75;;;;;;;;6490160;39;8903;-56
2024/04/07 13:34:02;;;;;;;;;5.50;5.50;;;;;;;;6490358;39;9087;-56
2024/04/07 13:40:03;;;;;;;;;7.33;5.00;;;;;;;;6491143;39;9614;-57
2024/04/07 13:46:05;;;;;;;;;5.00;5.00;;;;;;;;6492420;31;9214;-55
2024/04/07 13:52:08;;;;;;;;;6.00;6.00;;;;;;;;6491939;39;9045;-56
2024/04/07 13:58:09;;;;;;;;;6.00;5.50;;;;;;;;6491749;39;9011;-59
2024/04/07 14:04:10;;;;;;;;;5.00;4.00;;;;;;;;6491948;39;8930;-58
2024/04/07 14:10:12;;;;;;;;;6.00;6.00;;;;;;;;6491952;39;8917;-58
2024/04/07 14:16:13;;;;;;;;;6.00;5.25;;;;;;;;6491186;39;8993;-58
2024/04/07 14:22:15;;;;;;;;;6.25;5.50;;;;;;;;6490523;46;8908;-57
2024/04/07 14:28:16;;;;;;;;;5.75;5.75;;;;;;;;6491735;39;8971;-57
2024/04/07 14:34:17;;;;;;;;;5.75;5.75;;;;;;;;6491905;46;8941;-55
2024/04/07 14:40:17;;;;;;;;;4.75;4.75;;;;;;;;6491738;39;8894;-57
2024/04/07 14:46:18;;;;;;;;;5.25;5.25;;;;;;;;6491168;46;8948;-60
2024/04/07 14:52:19;;;;;;;;;7.00;5.25;;;;;;;;6490792;46;8879;-56
2024/04/07 14:58:20;;;;;;;;;4.00;4.00;;;;;;;;6491263;39;8920;-56
2024/04/07 15:04:22;;;;;;;;;6.25;6.00;;;;;;;;6491192;46;8976;-58
2024/04/07 15:10:24;;;;;;;;;7.00;5.50;;;;;;;;6491242;46;8908;-58
2024/04/07 15:16:25;;;;;;;;;5.00;5.00;;;;;;;;6491179;39;8910;-58
2024/04/07 15:22:27;;;;;;;;;6.25;6.00;;;;;;;;6491027;39;8972;-57
2024/04/07 15:28:28;;;;;;;;;15.00;13.75;;;;;;;;6490832;39;8978;-56
2024/04/07 15:34:30;;;;;;;;;9.00;7.75;;;;;;;;6491149;39;8968;-58
2024/04/07 15:40:31;;;;;;;;;8.75;8.50;;;;;;;;6491125;39;9454;-59
2024/04/07 15:46:32;;;;;;;;;7.00;7.00;;;;;;;;6490753;46;8900;-57
2024/04/07 15:52:33;;;;;;;;;21.00;18.67;;;;;;;;6490833;46;9049;-55
2024/04/07 15:58:35;;;;;;;;;7.25;6.25;;;;;;;;6490297;31;9003;-58
2024/04/07 16:04:37;;;;;;;;;3.75;3.00;;;;;;;;6490845;39;9610;-56
2024/04/07 16:10:39;;;;;;;;;7.00;7.00;;;;;;;;6490776;39;9640;-58
2024/04/07 16:16:40;;;;;;;;;6.33;6.00;;;;;;;;6490639;39;8882;-58
2024/04/07 16:22:41;;;;;;;;;10.33;10.33;;;;;;;;6490366;39;8900;-57
2024/04/07 16:28:42;;;;;;;;;7.00;7.00;;;;;;;;6490520;39;8957;-59
2024/04/07 16:34:44;;;;;;;;;6.00;6.00;;;;;;;;6490661;46;8982;-58
2024/04/07 16:40:55;;;;;;;;;7.00;5.33;;;;;;;;6490599;39;8982;-58
2024/04/07 16:46:56;;;;;;;;;8.33;8.33;;;;;;;;6490491;39;8904;-57
2024/04/07 16:52:57;;;;;;;;;8.67;6.33;;;;;;;;6490654;39;9502;-56
2024/04/07 16:58:58;;;;;;;;;9.33;8.00;;;;;;;;6491013;39;8933;-57
2024/04/07 17:04:59;;;;;;;;;11.67;8.67;;;;;;;;6491317;39;8952;-58
2024/04/07 17:11:00;;;;;;;;;10.33;10.33;;;;;;;;6489797;46;8931;-58
2024/04/07 17:17:03;;;;;;;;;24.67;17.33;;;;;;;;6488995;47;8930;-56
2024/04/07 17:23:04;;;;;;;;;15.33;15.33;;;;;;;;6489359;46;9052;-57
2024/04/07 17:29:05;;;;;;;;;14.33;11.33;;;;;;;;6489547;39;8898;-57
2024/04/07 17:35:06;;;;;;;;;13.67;13.67;;;;;;;;6489822;39;8976;-57
2024/04/07 17:41:08;;;;;;;;;12.67;12.67;;;;;;;;6489314;39;8997;-57
2024/04/07 17:47:09;;;;;;;;;13.33;11.67;;;;;;;;6490049;31;9007;-57
2024/04/07 17:53:10;;;;;;;;;10.00;10.00;;;;;;;;6488814;47;9014;-58
2024/04/07 17:59:10;;;;;;;;;11.00;11.00;;;;;;;;6489852;47;8983;-56
2024/04/07 18:05:13;;;;;;;;;13.67;10.00;;;;;;;;6490055;39;8890;-58
2024/04/07 18:11:14;;;;;;;;;27.67;23.33;;;;;;;;6489492;39;9019;-57
2024/04/07 18:17:15;;;;;;;;;28.33;27.67;;;;;;;;6489400;39;8954;-59
2024/04/07 18:23:16;;;;;;;;;18.67;17.00;;;;;;;;6489962;39;8881;-58
2024/04/07 18:29:17;;;;;;;;;11.33;11.00;;;;;;;;6491629;39;9013;-57
2024/04/07 18:35:19;;;;;;;;;13.67;13.33;;;;;;;;6492101;31;8992;-59
2024/04/07 18:41:20;;;;;;;;;14.33;12.00;;;;;;;;6491161;46;8990;-56
2024/04/07 18:47:21;;;;;;;;;16.67;16.67;;;;;;;;6490989;46;9051;-58
2024/04/07 18:53:24;;;;;;;;;36.33;34.00;;;;;;;;6492077;39;9586;-60
2024/04/07 18:59:25;;;;;;;;;36.67;34.33;;;;;;;;6490880;39;8941;-57
2024/04/07 19:05:25;;;;;;;;;16.67;15.00;;;;;;;;6491684;39;9467;-56
2024/04/07 19:11:26;;;;;;;;;13.00;13.00;;;;;;;;6491266;46;8892;-59
2024/04/07 19:17:28;;;;;;;;;15.00;12.00;;;;;;;;6491137;39;8886;-56
2024/04/07 19:23:29;;;;;;;;;18.67;14.00;;;;;;;;6491360;39;8911;-61
2024/04/07 19:29:32;;;;;;;;;14.00;12.00;;;;;;;;6490791;46;8887;-58
2024/04/07 19:35:34;;;;;;;;;18.00;16.33;;;;;;;;6490118;39;9038;-57
2024/04/07 19:41:36;;;;;;;;;13.33;11.00;;;;;;;;6491001;46;8886;-58
2024/04/07 19:47:38;;;;;;;;;13.67;13.67;;;;;;;;6491302;46;9028;-57
2024/04/07 19:53:39;;;;;;;;;17.00;17.00;;;;;;;;6490764;31;9629;-55
2024/04/07 19:59:40;;;;;;;;;14.67;14.67;;;;;;;;6490876;39;9059;-57
2024/04/07 20:05:42;;;;;;;;;18.67;17.00;;;;;;;;6490800;39;8993;-58
2024/04/07 20:11:47;;;;;;;;;19.00;17.67;;;;;;;;6491016;39;9583;-56
2024/04/07 20:17:48;;;;;;;;;10.33;9.00;;;;;;;;6490973;39;9021;-57
2024/04/07 20:23:49;;;;;;;;;22.00;21.00;;;;;;;;6491421;39;8880;-56
2024/04/07 20:29:50;;;;;;;;;23.33;22.33;;;;;;;;6489755;46;8867;-54
2024/04/07 20:35:51;;;;;;;;;17.00;17.00;;;;;;;;6490392;39;8952;-54
2024/04/07 20:41:52;;;;;;;;;15.67;15.67;;;;;;;;6490160;46;8905;-56
2024/04/07 20:47:53;;;;;;;;;22.00;20.00;;;;;;;;6490011;31;9016;-58
2024/04/07 20:53:54;;;;;;;;;15.33;14.00;;;;;;;;6490243;46;8875;-57
2024/04/07 20:59:55;;;;;;;;;17.00;14.67;;;;;;;;6491313;31;9019;-56
2024/04/07 21:05:56;;;;;;;;;17.00;16.00;;;;;;;;6490381;39;8867;-58
2024/04/07 21:12:02;;;;;;;;;15.33;13.00;;;;;;;;6490691;39;8932;-59
2024/04/07 21:18:04;;;;;;;;;16.00;16.00;;;;;;;;6490591;39;9465;-56
2024/04/07 21:24:05;;;;;;;;;20.67;19.00;;;;;;;;6490032;39;8897;-62
2024/04/07 21:30:07;;;;;;;;;18.00;18.00;;;;;;;;6490264;39;8847;-57
2024/04/07 21:36:09;;;;;;;;;22.00;21.00;;;;;;;;6489891;47;8960;-58
2024/04/07 21:42:10;;;;;;;;;26.00;21.33;;;;;;;;6489842;39;10068;-58
2024/04/07 21:48:11;;;;;;;;;17.00;17.00;;;;;;;;6490219;39;8896;-58
2024/04/07 21:54:14;;;;;;;;;22.33;20.33;;;;;;;;6490723;39;9046;-57
2024/04/07 22:00:17;;;;;;;;;28.33;26.33;;;;;;;;6490695;31;9592;-56
2024/04/07 22:06:19;;;;;;;;;22.67;22.67;;;;;;;;6491454;39;8962;-56
2024/04/07 22:12:21;;;;;;;;;21.67;20.00;;;;;;;;6491895;31;8849;-57
2024/04/07 22:18:27;;;;;;;;;23.00;20.33;;;;;;;;6491431;46;8882;-57
2024/04/07 22:24:28;;;;;;;;;21.00;20.33;;;;;;;;6492506;31;8924;-58
2024/04/07 22:30:29;;;;;;;;;27.50;26.75;;;;;;;;6490660;39;9510;-55
2024/04/07 22:36:31;;;;;;;;;24.00;21.67;;;;;;;;6491828;39;8933;-57
2024/04/07 22:42:32;;;;;;;;;24.00;21.67;;;;;;;;6491668;39;9586;-57
2024/04/07 22:48:33;;;;;;;;;23.33;22.00;;;;;;;;6491410;46;8892;-56
2024/04/07 22:54:35;;;;;;;;;28.25;27.25;;;;;;;;6491365;46;9014;-57
2024/04/07 23:00:39;;;;;;;;;15.25;15.25;;;;;;;;6490169;46;8999;-57
2024/04/07 23:06:41;;;;;;;;;28.00;24.00;;;;;;;;6490928;46;8887;-57
2024/04/07 23:12:42;;;;;;;;;23.00;21.33;;;;;;;;6490665;39;8971;-58
2024/04/07 23:18:44;;;;;;;;;24.33;20.00;;;;;;;;6491933;31;8890;-57
2024/04/07 23:24:47;;;;;;;;;21.25;19.75;;;;;;;;6491662;39;8900;-57
2024/04/07 23:31:04;;;;;;;;;19.25;17.00;;;;;;;;6491761;39;8886;-54
2024/04/07 23:37:06;;;;;;;;;19.50;17.75;;;;;;;;6491778;39;9015;-55
2024/04/07 23:43:07;;;;;;;;;21.00;21.00;;;;;;;;6490861;31;9013;-59
2024/04/07 23:49:08;;;;;;;;;19.25;19.00;;;;;;;;6490731;46;9031;-56
2024/04/07 23:55:10;;;;;;;;;21.25;19.75;;;;;;;;6491446;31;8933;-56
